Modulus 4 — UBBJ2 — position and weather

sailwx.info

Track history (hours):
 
Tides and Currents Weather Stations Pressure Air Temp Water Temp Dewpoint Dewpoint Depression Visibility Wind Speed Wind Dir Waves Ship Positions

Modulus 4

Last reported at 2018-Jul-20 15:41 UTC. Time now 2018-Jul-20 16:21 UTC.
Position N 45°11' E 036°31'.

Length 90 m; draft 3 m.

Type: Cargo ship. MMSI: 273357280.

Date/timePositionNaut miles runAvg speedWind from/ knotsBaromVisibWave heightAir tempDewpointWater temp
2018-Jul-20 15:41N 45°11' E 036°31'  
2018-Jul-12 00:15N 45°15' E 036°28'3 7.1
2018-Jul-11 23:49N 45°18' E 036°29'2 7.8
2018-Jul-11 23:30N 45°19' E 036°32'4 8.8
2018-Jul-11 23:00N 45°21' E 036°38'4 7.3
2018-Jul-11 22:30N 45°24' E 036°40'4 7.8
2018-Jul-11 21:59N 45°28' E 036°40'1 1.8
2018-Jul-11 21:27N 45°29' E 036°39'0 0.0
2018-Jul-11 21:00N 45°29' E 036°39'0 0.0
2018-Jul-11 18:54N 45°29' E 036°39'0 0.0
2018-Jul-11 18:09N 45°29' E 036°39'0 0.0
2018-Jul-11 17:15N 45°29' E 036°39'0 0.4
2018-Jul-11 17:00N 45°29' E 036°39'  
Track history (hours):
 
Tides and Currents Weather Stations Pressure Air Temp Water Temp Dewpoint Dewpoint Depression Visibility Wind Speed Wind Dir Waves Ship Positions

Modulus 4

Last reported at 2018-Jul-20 15:41 UTC. Time now 2018-Jul-20 16:21 UTC.
Position N 45°11' E 036°31'.

Length 90 m; draft 3 m.

Type: Cargo ship. MMSI: 273357280.

Date/timePositionNaut miles runAvg speedWind from/ knotsBaromVisibWave heightAir tempDewpointWater temp
2018-Jul-20 15:41N 45°11' E 036°31'  
2018-Jul-12 00:15N 45°15' E 036°28'3 7.1
2018-Jul-11 23:49N 45°18' E 036°29'2 7.8
2018-Jul-11 23:30N 45°19' E 036°32'4 8.8
2018-Jul-11 23:00N 45°21' E 036°38'4 7.3
2018-Jul-11 22:30N 45°24' E 036°40'4 7.8
2018-Jul-11 21:59N 45°28' E 036°40'1 1.8
2018-Jul-11 21:27N 45°29' E 036°39'0 0.0
2018-Jul-11 21:00N 45°29' E 036°39'0 0.0
2018-Jul-11 18:54N 45°29' E 036°39'0 0.0
2018-Jul-11 18:09N 45°29' E 036°39'0 0.0
2018-Jul-11 17:15N 45°29' E 036°39'0 0.4
2018-Jul-11 17:00N 45°29' E 036°39'  

Dump ship's entire track history